createdAt,value
2023-03-22T00:01:22.166Z,11.00
2023-03-22T00:03:50.714Z,10.90
2023-03-22T00:06:21.000Z,10.90
2023-03-22T00:08:51.820Z,10.90
2023-03-22T00:11:22.315Z,10.90
2023-03-22T00:13:52.634Z,10.90
2023-03-22T00:16:20.110Z,10.80
2023-03-22T00:18:49.930Z,10.80
2023-03-22T00:21:17.306Z,10.80
2023-03-22T00:23:44.621Z,10.80
2023-03-22T00:26:12.765Z,10.70
2023-03-22T00:28:39.507Z,10.70
2023-03-22T00:31:07.138Z,10.70
2023-03-22T00:33:34.323Z,10.70
2023-03-22T00:36:06.542Z,10.70
2023-03-22T00:38:43.733Z,10.60
2023-03-22T00:41:14.993Z,10.60
2023-03-22T00:43:42.472Z,10.60
2023-03-22T00:46:11.584Z,10.60
2023-03-22T00:48:39.118Z,10.60
2023-03-22T00:51:06.551Z,10.60
2023-03-22T00:53:33.799Z,10.60
2023-03-22T00:56:04.293Z,10.60
2023-03-22T00:58:31.254Z,10.60
2023-03-22T01:00:58.054Z,10.50
2023-03-22T01:03:24.921Z,10.50
2023-03-22T01:05:57.894Z,10.50
2023-03-22T01:08:25.033Z,10.50
2023-03-22T01:10:52.225Z,10.40
2023-03-22T01:13:19.069Z,10.50
2023-03-22T01:15:47.929Z,10.40
2023-03-22T01:18:14.804Z,10.40
2023-03-22T01:20:42.949Z,10.50
2023-03-22T01:23:09.763Z,10.40
2023-03-22T01:25:36.953Z,10.50
2023-03-22T01:28:06.576Z,10.50
2023-03-22T01:30:33.370Z,10.50
2023-03-22T01:33:00.296Z,10.50
2023-03-22T01:35:27.074Z,10.60
2023-03-22T01:37:53.897Z,10.60
2023-03-22T01:40:20.801Z,10.60
2023-03-22T01:42:47.697Z,10.60
2023-03-22T01:45:38.217Z,10.70
2023-03-22T01:48:06.911Z,10.70
2023-03-22T01:50:34.027Z,10.70
2023-03-22T01:53:02.609Z,10.80
2023-03-22T01:55:29.606Z,10.80
2023-03-22T01:57:56.625Z,10.80
2023-03-22T02:00:23.490Z,10.90
2023-03-22T02:02:52.254Z,10.80
2023-03-22T02:05:22.199Z,10.90
2023-03-22T02:07:49.875Z,10.90
2023-03-22T02:10:21.164Z,10.90
2023-03-22T02:12:56.650Z,10.90
2023-03-22T02:15:35.854Z,11.00
2023-03-22T02:18:36.513Z,11.00
2023-03-22T02:21:30.932Z,11.00
2023-03-22T02:24:05.610Z,11.00
2023-03-22T02:26:55.183Z,11.00
2023-03-22T02:29:45.122Z,11.00
2023-03-22T02:32:20.592Z,11.00
2023-03-22T02:34:59.474Z,11.00
2023-03-22T02:37:27.102Z,11.10
2023-03-22T02:40:44.818Z,11.10
2023-03-22T02:43:38.660Z,11.10
2023-03-22T02:46:45.169Z,11.10
2023-03-22T02:49:27.007Z,11.20
2023-03-22T02:52:19.856Z,11.10
2023-03-22T02:54:56.736Z,11.20
2023-03-22T02:57:33.408Z,11.20
2023-03-22T03:00:02.144Z,11.20
2023-03-22T03:02:30.722Z,11.20
2023-03-22T03:04:59.083Z,11.30
2023-03-22T03:07:28.839Z,11.30
2023-03-22T03:09:56.444Z,11.30
2023-03-22T03:12:28.196Z,11.30
2023-03-22T03:14:55.204Z,11.30
2023-03-22T03:17:24.694Z,11.30
2023-03-22T03:20:24.366Z,11.40
2023-03-22T03:23:04.613Z,11.40
2023-03-22T03:25:43.335Z,11.40
2023-03-22T03:28:38.509Z,11.40
2023-03-22T03:31:35.155Z,11.40
2023-03-22T03:34:23.623Z,11.50
2023-03-22T03:37:11.806Z,11.40
2023-03-22T03:39:46.601Z,11.50
2023-03-22T03:42:16.188Z,11.50
2023-03-22T03:44:43.514Z,11.50
2023-03-22T03:47:10.865Z,11.50
2023-03-22T03:49:38.316Z,11.40
2023-03-22T03:52:06.048Z,11.40
2023-03-22T03:54:32.931Z,11.40
2023-03-22T03:56:59.836Z,11.40
2023-03-22T03:59:30.142Z,11.40
2023-03-22T04:01:56.859Z,11.40
2023-03-22T04:04:27.178Z,11.30
2023-03-22T04:06:59.116Z,11.30
2023-03-22T04:09:27.976Z,11.30
2023-03-22T04:11:56.049Z,11.30
2023-03-22T04:14:23.932Z,11.30
2023-03-22T04:16:51.682Z,11.30
2023-03-22T04:19:19.100Z,11.20
2023-03-22T04:21:45.917Z,11.20
2023-03-22T04:24:13.128Z,11.20
2023-03-22T04:26:40.427Z,11.20
2023-03-22T04:29:07.464Z,11.20
2023-03-22T04:31:35.698Z,11.10
2023-03-22T04:34:05.833Z,11.10
2023-03-22T04:36:39.635Z,11.10
2023-03-22T04:39:09.490Z,11.10
2023-03-22T04:41:37.202Z,11.10
2023-03-22T04:44:05.880Z,11.00
2023-03-22T04:46:34.914Z,11.00
2023-03-22T04:49:02.170Z,11.00
2023-03-22T04:51:30.414Z,11.00
2023-03-22T04:53:57.223Z,11.00
2023-03-22T04:56:24.161Z,11.00
2023-03-22T04:58:51.178Z,11.00
2023-03-22T05:01:18.770Z,11.00
2023-03-22T05:03:47.391Z,11.00
2023-03-22T05:06:14.315Z,11.00
2023-03-22T05:08:41.524Z,11.00
2023-03-22T05:11:12.185Z,11.00
2023-03-22T05:13:39.434Z,11.00
2023-03-22T05:16:07.076Z,11.00
2023-03-22T05:18:34.269Z,11.00
2023-03-22T05:21:03.832Z,11.00
2023-03-22T05:23:30.596Z,11.00
2023-03-22T05:26:01.942Z,11.00
2023-03-22T05:28:28.849Z,11.00
2023-03-22T05:30:57.217Z,10.90
2023-03-22T05:33:25.950Z,10.90
2023-03-22T05:35:52.808Z,10.90
2023-03-22T05:38:19.724Z,10.90
2023-03-22T05:40:46.533Z,10.90
2023-03-22T05:43:13.594Z,10.90
2023-03-22T05:45:40.547Z,10.90
2023-03-22T05:48:07.760Z,10.90
2023-03-22T05:50:34.956Z,10.80
2023-03-22T05:53:04.976Z,10.90
2023-03-22T05:55:32.178Z,10.80
2023-03-22T05:58:01.366Z,10.80
2023-03-22T06:00:31.920Z,10.80
2023-03-22T06:03:03.457Z,10.80
2023-03-22T06:05:36.577Z,10.80
2023-03-22T06:08:04.185Z,10.80
2023-03-22T06:10:33.300Z,10.80
2023-03-22T06:13:00.395Z,10.80
2023-03-22T06:15:33.038Z,10.80
2023-03-22T06:17:59.762Z,10.80
2023-03-22T06:20:26.824Z,10.80
2023-03-22T06:22:53.653Z,10.80
2023-03-22T06:25:20.493Z,10.80
2023-03-22T06:27:48.998Z,10.80
2023-03-22T06:30:16.020Z,10.80
2023-03-22T06:32:42.769Z,10.80
2023-03-22T06:35:09.801Z,10.90
2023-03-22T06:37:36.946Z,10.90
2023-03-22T06:40:04.571Z,10.90
2023-03-22T06:42:31.489Z,11.00
2023-03-22T06:45:00.527Z,11.00
2023-03-22T06:47:27.851Z,11.00
2023-03-22T06:49:54.779Z,11.10
2023-03-22T06:52:22.107Z,11.10
2023-03-22T06:54:54.680Z,11.20
2023-03-22T06:57:21.609Z,11.20
2023-03-22T06:59:48.395Z,11.30
2023-03-22T07:02:15.447Z,11.40
2023-03-22T07:04:42.317Z,11.50
2023-03-22T07:07:09.164Z,11.60
2023-03-22T07:09:36.031Z,11.70
2023-03-22T07:12:04.990Z,11.70
2023-03-22T07:14:32.096Z,11.70
2023-03-22T07:16:59.419Z,11.70
2023-03-22T07:19:27.716Z,11.70
2023-03-22T07:21:54.458Z,11.70
2023-03-22T07:24:21.327Z,11.70
2023-03-22T07:26:51.301Z,11.70
2023-03-22T07:29:18.120Z,11.70
2023-03-22T07:31:47.838Z,11.70
2023-03-22T07:34:15.223Z,11.80
2023-03-22T07:36:42.143Z,11.80
2023-03-22T07:39:08.850Z,11.90
2023-03-22T07:41:37.886Z,11.90
2023-03-22T07:44:17.364Z,11.90
2023-03-22T07:46:44.624Z,11.90
2023-03-22T07:49:12.689Z,12.00
2023-03-22T07:51:39.401Z,12.00
2023-03-22T07:54:07.857Z,12.00
2023-03-22T07:56:35.303Z,12.10
2023-03-22T07:59:06.368Z,12.20
2023-03-22T08:01:33.707Z,12.20
2023-03-22T08:04:00.507Z,12.40
2023-03-22T08:06:27.182Z,12.50
2023-03-22T08:08:53.960Z,12.50
2023-03-22T08:11:21.059Z,12.50
2023-03-22T08:13:47.736Z,12.50
2023-03-22T08:16:17.365Z,12.50
2023-03-22T08:18:47.069Z,12.50
2023-03-22T08:21:13.804Z,12.60
2023-03-22T08:23:42.055Z,12.80
2023-03-22T08:26:10.591Z,13.00
2023-03-22T08:28:39.639Z,13.10
2023-03-22T08:31:17.495Z,13.20
2023-03-22T08:33:45.097Z,13.20
2023-03-22T08:36:16.396Z,13.10
2023-03-22T08:38:44.873Z,13.20
2023-03-22T08:41:17.798Z,13.40
2023-03-22T08:43:44.496Z,13.40
2023-03-22T08:46:11.439Z,13.30
2023-03-22T08:48:38.522Z,13.30
2023-03-22T08:51:06.679Z,13.30
2023-03-22T08:53:39.758Z,13.20
2023-03-22T08:56:07.883Z,13.30
2023-03-22T08:58:37.583Z,13.30
2023-03-22T09:01:04.649Z,13.30
2023-03-22T09:03:31.436Z,13.30
2023-03-22T09:05:58.693Z,13.40
2023-03-22T09:08:26.058Z,13.40
2023-03-22T09:10:52.824Z,13.40
2023-03-22T09:13:20.450Z,13.40
2023-03-22T09:15:47.586Z,13.40
2023-03-22T09:18:14.899Z,13.40
2023-03-22T09:20:42.083Z,13.30
2023-03-22T09:23:09.189Z,13.30
2023-03-22T09:25:36.066Z,13.30
2023-03-22T09:28:04.192Z,13.30
2023-03-22T09:30:31.232Z,13.20
2023-03-22T09:33:00.700Z,13.20
2023-03-22T09:35:27.567Z,13.20
2023-03-22T09:37:56.088Z,13.20
2023-03-22T09:40:35.128Z,13.20
2023-03-22T09:43:05.760Z,13.30
2023-03-22T09:45:41.743Z,13.30
2023-03-22T09:48:27.523Z,13.40
2023-03-22T09:50:55.556Z,13.40
2023-03-22T09:53:24.888Z,13.40
2023-03-22T09:56:05.768Z,13.40
2023-03-22T09:58:50.590Z,13.40
2023-03-22T10:01:45.583Z,13.40
2023-03-22T10:04:18.264Z,13.40
2023-03-22T10:06:51.260Z,13.40
2023-03-22T10:09:29.954Z,13.40
2023-03-22T10:12:07.105Z,13.40
2023-03-22T10:14:48.763Z,13.30
2023-03-22T10:17:20.802Z,13.30
2023-03-22T10:19:58.002Z,13.30
2023-03-22T10:22:30.936Z,13.30
2023-03-22T10:25:00.145Z,13.30
2023-03-22T10:27:29.682Z,13.20
2023-03-22T10:30:03.367Z,13.20
2023-03-22T10:33:01.687Z,13.20
2023-03-22T10:35:30.559Z,13.10
2023-03-22T10:38:01.236Z,13.00
2023-03-22T10:40:31.256Z,12.90
2023-03-22T10:43:04.188Z,12.70
2023-03-22T10:45:34.889Z,12.60
2023-03-22T10:48:28.716Z,12.50
2023-03-22T10:50:58.233Z,12.50
2023-03-22T10:53:33.823Z,12.50
2023-03-22T10:56:00.884Z,12.50
2023-03-22T10:58:33.171Z,12.50
2023-03-22T11:01:04.347Z,12.50
2023-03-22T11:03:42.820Z,12.50
2023-03-22T11:06:38.756Z,12.50
2023-03-22T11:09:24.891Z,12.50
2023-03-22T11:11:55.508Z,12.50
2023-03-22T11:14:33.161Z,12.50
2023-03-22T11:17:12.607Z,12.60
2023-03-22T11:19:53.997Z,12.60
2023-03-22T11:22:40.827Z,12.60
2023-03-22T11:25:15.577Z,12.80
2023-03-22T11:28:17.057Z,12.90
2023-03-22T11:31:02.525Z,13.00
2023-03-22T11:33:29.965Z,13.00
2023-03-22T11:36:02.507Z,13.00
2023-03-22T11:38:36.974Z,13.00
2023-03-22T11:41:35.223Z,13.00
2023-03-22T11:44:10.005Z,12.90
2023-03-22T11:46:37.752Z,12.90
2023-03-22T11:49:09.268Z,12.90
2023-03-22T11:51:40.917Z,12.80
2023-03-22T11:54:24.987Z,12.80
2023-03-22T11:56:54.574Z,12.80
2023-03-22T11:59:27.920Z,12.80
2023-03-22T12:02:17.378Z,12.80
2023-03-22T12:04:46.398Z,12.80
2023-03-22T12:07:20.927Z,12.90
2023-03-22T12:10:12.024Z,12.90
2023-03-22T12:12:53.122Z,13.00
2023-03-22T12:15:26.114Z,13.00
2023-03-22T12:17:53.045Z,13.00
2023-03-22T12:20:27.189Z,13.00
2023-03-22T12:22:55.527Z,12.90
2023-03-22T12:25:30.487Z,13.00
2023-03-22T12:28:03.175Z,13.00
2023-03-22T12:30:42.640Z,12.90
2023-03-22T12:33:19.190Z,13.00
2023-03-22T12:35:47.216Z,13.00
2023-03-22T12:38:35.501Z,13.00
2023-03-22T12:41:07.434Z,13.00
2023-03-22T12:43:44.473Z,13.00
2023-03-22T12:46:20.482Z,13.00
2023-03-22T12:49:10.364Z,13.00
2023-03-22T12:51:38.060Z,13.00
2023-03-22T12:54:05.688Z,13.00
2023-03-22T12:56:42.369Z,13.00
2023-03-22T12:59:18.092Z,13.10
2023-03-22T13:02:03.790Z,13.00
2023-03-22T13:04:36.440Z,13.10
2023-03-22T13:07:16.236Z,13.10
2023-03-22T13:09:51.066Z,13.10
2023-03-22T13:12:17.794Z,13.10
2023-03-22T13:14:51.013Z,13.10
2023-03-22T13:17:24.046Z,13.20
2023-03-22T13:20:09.020Z,13.20
2023-03-22T13:22:38.982Z,13.20
2023-03-22T13:25:16.845Z,13.20
2023-03-22T13:28:06.619Z,13.20
2023-03-22T13:30:36.952Z,13.30
2023-03-22T13:33:09.686Z,13.20
2023-03-22T13:35:51.201Z,13.20
2023-03-22T13:38:24.146Z,13.20
2023-03-22T13:40:56.735Z,13.20
2023-03-22T13:43:28.342Z,13.30
2023-03-22T13:46:18.141Z,13.20
2023-03-22T13:48:48.267Z,13.30
2023-03-22T13:51:29.327Z,13.30
2023-03-22T13:54:06.836Z,13.30
2023-03-22T13:56:43.178Z,13.30
2023-03-22T13:59:20.432Z,13.30
2023-03-22T14:02:09.296Z,13.30
2023-03-22T14:04:47.228Z,13.30
2023-03-22T14:07:31.716Z,13.30
2023-03-22T14:10:16.579Z,13.30
2023-03-22T14:12:52.483Z,13.30
2023-03-22T14:15:24.233Z,13.30
2023-03-22T14:18:01.144Z,13.30
2023-03-22T14:20:34.599Z,13.30
